モントリオール/トルドー の空港の天気 - METARとTAF

モントリオール・ピエール・エリオット・トルドー国際空港 ( CYUL / YUL ) - カナダ ケベック州モントリオール
飛行場実況気象(Metar)
観測時間06/24 05:00 EDT (06/24 09:00 UTC)
風向・風速北 2m/s
視程10km以上
天気現象
少しの雲 雲底高度 7620m
気温12℃
湿度77%
気圧1011.3hPa
METARCYUL 240900Z 01004KT 30SM FEW250 12/08 A2986 RMK CI1 CI TR SLP113
過去の天気等 Google飛行場航空写真 Wunderground天気予報

過去48時間のMETAR

飛行場予報(TAF)
発表時間: 6/24 04:38 EDT (6/24 08:38 UTC)
予報対象時間: 24日5時 EDT ~ 25日2時 EDT
風向・風速不定 2m/s
視程10km以上
なし
24日8時 EDT から
風向・風速北東 4m/s
視程10km以上
なし
24日12時 EDT から
風向・風速東 4m/s
視程10km以上
全天の8割程度の雲 雲底高度 7620m
TAF CYUL 240838Z 2409/2506 VRB03KT P6SM SKC
FM241200 05008KT P6SM SKC
FM241600 09008KT P6SM BKN250 RMK NXT FCST BY 241200Z